WetterOnline ( https://www.wetteronline.de )

Wetter aktuell Coburg

Aktuelles Wetter: Coburg (323m)

6-stündlich | Neueste Meldungen
Ortszeit Temperatur Wetter
Mo, 03.08. 8:00 15.9° C wolkig
Mo, 03.08. 2:00 15.7° C bewölkt
So, 02.08. 20:00 20.7° C wolkig
So, 02.08. 14:00 23.3° C bewölkt
So, 02.08. 8:00 19.3° C bewölkt
So, 02.08. 2:00 21.1° C wolkig
Sa, 01.08. 20:00 28.8° C Sprühregen
Sa, 01.08. 14:00 31.9° C leicht bewölkt
Ortszeit Temperatur Wetter
Mo, 03.08. 11:00 18.2° C bewölkt
Mo, 03.08. 10:40 17.9° C bedeckt
Mo, 03.08. 10:30 17.7° C bewölkt
Mo, 03.08. 10:20 17.7° C bewölkt
Mo, 03.08. 10:10 18.1° C bedeckt
Mo, 03.08. 10:00 17.4° C bedeckt
Mo, 03.08. 9:50 17.4° C bedeckt
Mo, 03.08. 9:30 17.5° C bewölkt
Mo, 03.08. 9:00 17.4° C bedeckt
Ortszeit Relative Feuchte Sichtweite
Mo, 03.08. 8:00 84% 45 km
Mo, 03.08. 2:00 84% 45 km
So, 02.08. 20:00 77% 55 km
So, 02.08. 14:00 63% 40 km
So, 02.08. 8:00 71% 60 km
So, 02.08. 2:00 61% 65 km
Sa, 01.08. 20:00 39% 45 km
Sa, 01.08. 14:00 24% >70 km
Ortszeit Relative Feuchte Sichtweite
Mo, 03.08. 11:00 69% 50 km
Mo, 03.08. 10:40 73% -
Mo, 03.08. 10:30 73% 50 km
Mo, 03.08. 10:20 73% -
Mo, 03.08. 10:10 70% -
Mo, 03.08. 10:00 74% 55 km
Mo, 03.08. 9:50 74% -
Mo, 03.08. 9:30 73% 55 km
Mo, 03.08. 9:00 74% 65 km
Ortszeit Niederschlagsmenge Niederschlagsart
Mo, 03.08. 8:00 0.1 l/m2 in 12 Std. -
Mo, 03.08. 2:00 0.1 l/m2 in 6 Std. Regen
So, 02.08. 20:00 2 l/m2 in 12 Std. Regen
So, 02.08. 14:00 2 l/m2 in 6 Std. Regen
So, 02.08. 8:00 0.1 l/m2 in 12 Std. -
So, 02.08. 2:00 0.1 l/m2 in 6 Std. Sprühregen
Sa, 01.08. 20:00 0.1 l/m2 in 12 Std. Regen
Sa, 01.08. 14:00 0.0 l/m2 in 6 Std. -
Ortszeit Niederschlagsmenge Niederschlagsart
Mo, 03.08. 11:00 0.0 l/m2 in 1 Std. -
Mo, 03.08. 10:40 keine Meldung -
Mo, 03.08. 10:30 0.0 l/m2 in 1 Std. -
Mo, 03.08. 10:20 keine Meldung -
Mo, 03.08. 10:10 keine Meldung -
Mo, 03.08. 10:00 0.0 l/m2 in 1 Std. -
Mo, 03.08. 9:50 keine Meldung -
Mo, 03.08. 9:30 0.0 l/m2 in 1 Std. -
Mo, 03.08. 9:00 0.0 l/m2 in 1 Std. -
Ortszeit Stärke Spitze Richtung
km/h Bft. km/h Grad Sektor
Mo, 03.08. 8:00 2 1 15 20° N
Mo, 03.08. 2:00 7 2 18 350° N
So, 02.08. 20:00 7 2 29 110° O
So, 02.08. 14:00 4 1 54 110° O
So, 02.08. 8:00 7 2 18 10° N
So, 02.08. 2:00 9 2 41 280° W
Sa, 01.08. 20:00 25 4 36 350° N
Sa, 01.08. 14:00 13 3 24 230° SW
Ortszeit Stärke Spitze Richtung
km/h Bft. km/h Grad Sektor
Mo, 03.08. 11:00 13 3 20 90° O
Mo, 03.08. 10:40 14 3 - 90° O
Mo, 03.08. 10:30 13 3 19 70° O
Mo, 03.08. 10:20 13 3 - 70° O
Mo, 03.08. 10:10 11 2 - 40° NO
Mo, 03.08. 10:00 14 3 22 70° O
Mo, 03.08. 9:50 14 3 - 70° O
Mo, 03.08. 9:30 14 3 22 60° NO
Mo, 03.08. 9:00 13 3 22 60° NO
Ortszeit Untergrenze Bedeckung Gattung
total tief tief mittel hoch
Mo, 03.08. 8:00 540 m 8/8 2/8 - - -
Mo, 03.08. 2:00 6300 m 8/8 7/8 - - -
So, 02.08. 20:00 660 m 7/8 3/8 - - -
So, 02.08. 14:00 1800 m 8/8 5/8 - - -
So, 02.08. 8:00 2100 m 8/8 5/8 - - -
So, 02.08. 2:00 7500 m 8/8 0/8 - - -
Sa, 01.08. 20:00 2700 m 8/8 2/8 - - -
Sa, 01.08. 14:00 10500 m 7/8 0/8 - - -
Ortszeit Bedeckungsgrad in Achtel und Wolkenuntergrenze
Mo, 03.08. 11:00 7(690m)
Mo, 03.08. 10:40 4(570m) 8(720m)
Mo, 03.08. 10:30 7(660m) 7(5100m) 7(6000m)
Mo, 03.08. 10:20 7(660m) 7(5100m) 7(6000m)
Mo, 03.08. 10:10 7(720m) 8(2400m) 8(5100m)
Mo, 03.08. 10:00 8(660m) 8(3000m)
Mo, 03.08. 9:50 8(660m)
Mo, 03.08. 9:30 7(600m) 8(4800m) 8(5700m)
Mo, 03.08. 9:00 7(540m) 8(2400m) 8(4500m)
Ortszeit Luftdruck NN (hPa) Tendenz (hPa in 3 Std.)
Mo, 03.08. 8:00 1013 + 0,4
Mo, 03.08. 2:00 1013 - 0,2
So, 02.08. 20:00 1012 - 0,3
So, 02.08. 14:00 1012 - 0,3
So, 02.08. 8:00 1012 + 0,2
So, 02.08. 2:00 1012 - 0,3
Sa, 01.08. 20:00 1011 - 0,1
Sa, 01.08. 14:00 1012 - 1,2
Ortszeit Luftdruck NN (hPa) Tendenz (hPa in 3 Std.)
Mo, 03.08. 11:00 1012 - 0,2
Mo, 03.08. 10:40 1012 keine Meldung
Mo, 03.08. 10:30 1012 - 0,1
Mo, 03.08. 10:20 1012 keine Meldung
Mo, 03.08. 10:10 1012 keine Meldung
Mo, 03.08. 10:00 1012 - 0,1
Mo, 03.08. 9:50 1012 keine Meldung
Mo, 03.08. 9:30 1012 + 0,3
Mo, 03.08. 9:00 1012 + 0,5
Ortszeit Schneehöhe (cm)
Mo, 03.08. 8:00 -
Mo, 03.08. 2:00 -
So, 02.08. 20:00 -
So, 02.08. 14:00 -
So, 02.08. 8:00 -
So, 02.08. 2:00 -
Sa, 01.08. 20:00 -
Sa, 01.08. 14:00 -
Ortszeit Schneehöhe (cm)
Mo, 03.08. 11:00 -
Mo, 03.08. 10:40 -
Mo, 03.08. 10:30 -
Mo, 03.08. 10:20 -
Mo, 03.08. 10:10 -
Mo, 03.08. 10:00 -
Mo, 03.08. 9:50 -
Mo, 03.08. 9:30 -
Mo, 03.08. 9:00 -
Link zu dieser Seite / Seite empfehlen

Das Wetter in ...